Time;durP1;ratioP1;P1;durP2;ratioP2;P2;SDS_P1;SDS_P2;PMS_P1;PMS_P2;Temp;Humidity;BMP_temperature;BMP_pressure;BME280_temperature;BME280_humidity;BME280_pressure;Samples;Min_cycle;Max_cycle;Signal;HPM_P1;HPM_P2
2021/01/04 00:01:33;;;;;;;53.95;26.58;;;;;;;0.65;80.54;95923.25;5044881;28;20057;-76
2021/01/04 00:04:27;;;;;;;43.63;23.10;;;;;;;0.65;80.50;95918.91;5048750;28;20507;-77
2021/01/04 00:07:01;;;;;;;49.30;26.52;;;;;;;0.66;80.12;95919.72;5046397;28;20519;-77
2021/01/04 00:09:52;;;;;;;47.00;25.80;;;;;;;0.63;80.18;95926.03;5051541;28;20028;-76
2021/01/04 00:12:48;;;;;;;48.85;25.52;;;;;;;0.62;80.22;95924.41;4971543;28;20052;-79
2021/01/04 00:16:25;;;;;;;50.78;26.40;;;;;;;0.61;80.54;95917.66;5043755;28;20033;-77
2021/01/04 00:19:22;;;;;;;47.58;25.10;;;;;;;0.52;79.75;95922.00;4912056;29;20047;-76
2021/01/04 00:22:00;;;;;;;49.65;25.65;;;;;;;0.44;79.96;95914.31;5047340;28;20481;-77
2021/01/04 00:24:49;;;;;;;49.00;25.95;;;;;;;0.42;80.22;95916.28;5026312;28;20044;-76
2021/01/04 00:27:32;;;;;;;44.88;25.05;;;;;;;0.43;80.25;95915.28;5027298;28;20032;-76
2021/01/04 00:30:01;;;;;;;43.80;24.90;;;;;;;0.45;80.32;95912.53;5038555;28;20557;-76
2021/01/04 00:32:38;;;;;;;49.08;25.90;;;;;;;0.45;80.39;95915.91;5044026;28;20408;-76
2021/01/04 00:35:13;;;;;;;42.65;24.58;;;;;;;0.49;80.41;95916.41;5043791;28;20485;-77
2021/01/04 00:37:52;;;;;;;43.65;25.27;;;;;;;0.43;80.05;95915.28;5045446;28;20041;-79
2021/01/04 00:40:29;;;;;;;47.63;26.55;;;;;;;0.38;80.30;95915.78;5044662;28;20044;-77
2021/01/04 00:42:56;;;;;;;46.35;25.90;;;;;;;0.36;80.19;95920.31;5037465;28;20409;-76
2021/01/04 00:45:26;;;;;;;39.22;23.60;;;;;;;0.38;80.20;95917.56;5046109;28;20404;-76
2021/01/04 00:48:05;;;;;;;45.03;24.55;;;;;;;0.38;80.32;95926.09;5039104;28;20040;-76
2021/01/04 00:50:49;;;;;;;41.22;24.50;;;;;;;0.42;80.36;95918.03;5042978;28;20045;-76
2021/01/04 00:53:21;;;;;;;43.80;24.45;;;;;;;0.45;80.40;95915.91;5046413;28;20049;-76
2021/01/04 00:55:53;;;;;;;45.33;25.67;;;;;;;0.49;80.61;95913.81;5031861;28;20052;-76
2021/01/04 00:58:43;;;;;;;43.78;24.80;;;;;;;0.52;80.47;95919.44;5048801;28;20036;-85
2021/01/04 01:01:21;;;;;;;47.70;24.58;;;;;;;0.50;80.00;95920.56;5046060;28;20045;-76
2021/01/04 01:03:57;;;;;;;45.50;25.20;;;;;;;0.47;80.06;95919.13;5044359;28;20041;-77
2021/01/04 01:06:38;;;;;;;45.90;24.15;;;;;;;0.47;80.12;95926.88;5046751;28;20037;-76
2021/01/04 01:09:08;;;;;;;43.67;24.60;;;;;;;0.49;80.22;95924.94;5047185;28;20046;-76
2021/01/04 01:12:06;;;;;;;44.80;25.50;;;;;;;0.52;80.58;95931.53;5042222;28;20033;-76
2021/01/04 01:14:48;;;;;;;38.53;22.90;;;;;;;0.50;80.64;95921.38;5017507;28;20474;-76
2021/01/04 01:17:43;;;;;;;43.70;24.30;;;;;;;0.53;80.73;95928.78;5047689;28;20041;-76
2021/01/04 01:20:14;;;;;;;41.10;23.63;;;;;;;0.54;80.40;95930.38;5041516;28;20056;-76
2021/01/04 01:22:41;;;;;;;43.55;24.20;;;;;;;0.55;80.47;95929.44;5037028;28;20049;-76
2021/01/04 01:25:15;;;;;;;47.90;24.00;;;;;;;0.56;80.53;95933.59;5039682;28;20041;-76
2021/01/04 01:28:15;;;;;;;44.30;23.92;;;;;;;0.58;80.68;95934.25;5020271;28;20052;-80
2021/01/04 01:30:53;;;;;;;44.90;24.77;;;;;;;0.60;80.45;95941.81;5047379;28;20409;-76
2021/01/04 01:33:55;;;;;;;41.55;24.70;;;;;;;0.60;80.39;95950.34;5047119;28;20048;-77
2021/01/04 01:36:21;;;;;;;45.15;24.00;;;;;;;0.56;80.08;95945.72;5043997;28;20056;-76
2021/01/04 01:39:22;;;;;;;44.85;24.52;;;;;;;0.55;79.87;95944.13;5044746;28;20049;-76
2021/01/04 01:41:54;;;;;;;42.83;24.40;;;;;;;0.53;79.94;95949.44;5003970;28;20037;-76
2021/01/04 01:44:37;;;;;;;45.10;24.60;;;;;;;0.52;80.14;95940.06;5051048;28;20033;-76
2021/01/04 01:47:11;;;;;;;47.60;25.33;;;;;;;0.49;79.96;95948.16;5052194;28;20048;-76
2021/01/04 01:50:01;;;;;;;45.40;25.73;;;;;;;0.47;79.88;95942.34;5049350;28;20052;-76
2021/01/04 01:52:54;;;;;;;45.55;25.67;;;;;;;0.47;80.25;95942.34;5046121;28;20938;-77
2021/01/04 01:55:26;;;;;;;44.85;24.85;;;;;;;0.48;80.34;95948.31;5042010;28;20048;-76
2021/01/04 01:58:20;;;;;;;44.60;24.70;;;;;;;0.52;80.33;95947.81;5013677;28;20128;-76
2021/01/04 02:01:04;;;;;;;45.45;26.55;;;;;;;0.51;80.14;95941.06;5045511;28;20033;-76
2021/01/04 02:03:39;;;;;;;;;;;;;;;0.50;80.23;95941.22;5038966;28;20040;-76
2021/01/04 02:06:40;;;;;;;49.90;25.27;;;;;;;0.50;80.13;95954.91;5039172;28;19924;-76
2021/01/04 02:09:20;;;;;;;43.50;24.75;;;;;;;0.51;80.27;95946.22;5050803;28;20049;-76
2021/01/04 02:11:51;;;;;;;45.08;25.60;;;;;;;0.54;80.40;95947.66;5051923;28;20041;-76
2021/01/04 02:14:29;;;;;;;42.00;24.42;;;;;;;0.57;80.37;95950.72;5032798;28;20503;-77
2021/01/04 02:17:12;;;;;;;49.78;26.52;;;;;;;0.58;80.34;95948.94;5046744;28;20045;-76
2021/01/04 02:20:01;;;;;;;48.25;25.40;;;;;;;0.59;80.29;95942.81;5040380;28;20041;-76
2021/01/04 02:22:46;;;;;;;45.45;24.85;;;;;;;0.57;80.33;95948.13;5023576;28;20045;-76
2021/01/04 02:25:12;;;;;;;46.92;24.80;;;;;;;0.57;80.33;95939.59;5045804;28;20056;-76
2021/01/04 02:27:48;;;;;;;48.78;26.40;;;;;;;0.56;80.33;95933.59;5028428;28;20465;-76
2021/01/04 02:30:15;;;;;;;46.10;25.90;;;;;;;0.56;80.36;95935.38;5043624;28;20059;-77
2021/01/04 02:32:42;;;;;;;46.50;24.90;;;;;;;0.58;80.48;95936.03;5042943;28;20045;-79
2021/01/04 02:35:09;;;;;;;44.78;24.63;;;;;;;0.58;80.46;95934.25;5044700;28;20425;-77
2021/01/04 02:37:36;;;;;;;45.97;24.98;;;;;;;0.57;80.27;95932.66;5044953;28;20061;-76
2021/01/04 02:40:07;;;;;;;44.60;24.88;;;;;;;0.53;80.15;95933.16;5042976;28;20056;-76
2021/01/04 02:42:40;;;;;;;46.22;24.50;;;;;;;0.53;80.29;95938.31;5023993;28;20037;-76
2021/01/04 02:45:14;;;;;;;47.78;25.42;;;;;;;0.52;80.25;95936.69;5043380;28;20370;-76
2021/01/04 02:48:01;;;;;;;;;;;;;;;0.53;80.47;95946.06;5052891;28;20036;-76
2021/01/04 02:50:43;;;;;;;53.03;26.10;;;;;;;0.51;80.26;95935.91;5051928;28;19936;-76
2021/01/04 02:53:25;;;;;;;51.47;27.35;;;;;;;0.51;80.38;95930.72;5051282;28;20037;-81
2021/01/04 02:56:08;;;;;;;51.45;26.70;;;;;;;0.53;80.24;95939.13;5020735;28;20045;-76
2021/01/04 02:59:01;;;;;;;51.27;26.07;;;;;;;0.52;80.40;95939.28;5047523;28;20052;-76
2021/01/04 03:01:35;;;;;;;48.97;27.25;;;;;;;0.50;80.13;95934.28;5042285;28;20044;-76
2021/01/04 03:04:02;;;;;;;50.15;27.05;;;;;;;0.48;80.13;95941.38;5042744;28;20053;-76
2021/01/04 03:06:42;;;;;;;46.78;26.10;;;;;;;0.48;80.19;95941.38;5046124;28;20049;-77
2021/01/04 03:09:09;;;;;;;50.80;27.38;;;;;;;0.48;80.21;95938.00;5043454;28;20049;-76
2021/01/04 03:11:40;;;;;;;50.92;26.58;;;;;;;0.48;80.06;95943.94;5049075;28;20052;-80
2021/01/04 03:14:25;;;;;;;53.20;28.33;;;;;;;0.49;80.06;95944.78;5026198;28;20041;-76
2021/01/04 03:17:12;;;;;;;;;;;;;;;0.47;79.84;95944.13;5043102;28;20060;-76
2021/01/04 03:19:41;;;;;;;53.97;28.08;;;;;;;0.45;79.87;95949.47;5040948;28;20254;-76
2021/01/04 03:22:13;;;;;;;56.22;27.88;;;;;;;0.47;80.13;95955.25;5018827;28;20045;-76
2021/01/04 03:24:39;;;;;;;54.88;28.05;;;;;;;0.49;80.04;95947.34;5050116;28;20052;-78
2021/01/04 03:27:13;;;;;;;53.22;27.90;;;;;;;0.49;80.19;95940.41;5046018;28;20045;-77
2021/01/04 03:29:39;;;;;;;53.67;28.33;;;;;;;0.51;80.10;95948.78;5045851;28;20374;-76
2021/01/04 03:32:05;;;;;;;53.97;27.23;;;;;;;0.50;80.10;95952.31;5042395;28;20056;-77
2021/01/04 03:34:31;;;;;;;54.00;27.98;;;;;;;0.53;80.29;95958.94;5049791;28;20397;-78
2021/01/04 03:36:58;;;;;;;56.90;28.65;;;;;;;0.53;80.04;95951.22;5045914;28;20057;-76
2021/01/04 03:39:28;;;;;;;53.85;28.60;;;;;;;0.56;80.19;95950.88;5047546;28;20052;-76
2021/01/04 03:41:59;;;;;;;54.80;28.58;;;;;;;0.56;80.06;95946.50;5048085;28;20167;-76
2021/01/04 03:44:27;;;;;;;48.80;27.80;;;;;;;0.57;80.16;95942.97;5017774;28;20040;-76
2021/01/04 03:46:54;;;;;;;52.42;27.40;;;;;;;0.59;80.14;95943.59;5045309;28;20045;-76
2021/01/04 03:49:21;;;;;;;54.42;28.58;;;;;;;0.58;80.17;95938.59;5042784;28;20405;-76
2021/01/04 03:51:55;;;;;;;52.03;27.20;;;;;;;0.59;80.21;95941.03;5048271;28;20052;-79
2021/01/04 03:54:22;;;;;;;52.67;27.52;;;;;;;0.61;80.18;95948.59;5028867;28;20060;-76
2021/01/04 03:56:48;;;;;;;55.38;28.90;;;;;;;0.58;80.17;95943.75;5025182;28;20038;-76
2021/01/04 03:59:15;;;;;;;51.75;27.15;;;;;;;0.56;80.15;95943.13;5045226;28;20045;-76
2021/01/04 04:02:02;;;;;;;51.70;27.95;;;;;;;0.55;80.19;95939.75;5046185;28;20044;-77
2021/01/04 04:04:28;;;;;;;50.80;27.52;;;;;;;0.53;80.23;95935.72;5027718;28;20045;-76
2021/01/04 04:06:54;;;;;;;53.70;28.05;;;;;;;0.52;80.25;95940.06;5043242;28;20060;-77
2021/01/04 04:09:22;;;;;;;50.03;26.38;;;;;;;0.51;80.30;95946.22;5045030;28;20044;-76
2021/01/04 04:11:50;;;;;;;54.50;27.70;;;;;;;0.52;80.21;95947.00;5046191;28;20037;-76
2021/01/04 04:14:17;;;;;;;51.40;26.58;;;;;;;0.51;80.29;95946.22;5047122;28;20058;-76
2021/01/04 04:16:44;;;;;;;50.90;27.98;;;;;;;0.52;80.28;95944.44;5051851;28;20060;-78
2021/01/04 04:19:12;;;;;;;50.72;27.23;;;;;;;0.50;80.28;95941.22;5042503;28;20060;-78
2021/01/04 04:21:38;;;;;;;52.47;28.42;;;;;;;0.50;80.26;95936.06;5022200;28;20057;-76
2021/01/04 04:24:05;;;;;;;57.58;29.17;;;;;;;0.49;80.26;95937.84;5034551;28;20056;-77
2021/01/04 04:26:32;;;;;;;57.80;29.48;;;;;;;0.47;80.32;95934.63;5020555;28;20045;-76
2021/01/04 04:28:58;;;;;;;57.75;29.52;;;;;;;0.47;80.39;95937.19;5039125;28;20065;-77
2021/01/04 04:31:24;;;;;;;50.50;28.05;;;;;;;0.45;80.33;95949.47;5049506;28;20052;-76
2021/01/04 04:33:51;;;;;;;53.00;27.92;;;;;;;0.46;80.46;95940.72;5028838;28;20044;-76
2021/01/04 04:36:22;;;;;;;55.05;30.08;;;;;;;0.45;80.44;95946.88;5039221;28;20444;-76
2021/01/04 04:38:49;;;;;;;51.00;28.77;;;;;;;0.46;80.26;95939.94;5070761;28;20040;-78
2021/01/04 04:41:28;;;;;;;54.75;29.23;;;;;;;0.46;80.37;95956.22;5060185;28;20405;-76
2021/01/04 04:44:05;;;;;;;55.20;29.10;;;;;;;0.45;80.14;95951.25;5063791;28;20055;-76
2021/01/04 04:46:40;;;;;;;61.00;30.25;;;;;;;0.43;80.37;95953.19;5066104;28;20484;-76
2021/01/04 04:49:20;;;;;;;57.25;30.55;;;;;;;0.43;80.52;95959.13;5068584;28;20043;-76
2021/01/04 04:52:26;;;;;;;62.63;30.77;;;;;;;0.46;80.58;95956.22;5065844;28;20388;-77
2021/01/04 04:55:04;;;;;;;;;;;;;;;0.46;80.60;95956.22;5014458;28;20034;-76
2021/01/04 04:57:54;;;;;;;54.15;27.05;;;;;;;0.47;80.50;95963.00;5013302;28;19913;-76
2021/01/04 05:00:25;;;;;;;61.05;31.08;;;;;;;0.47;80.43;95955.25;5046704;28;20400;-76
2021/01/04 05:03:14;;;;;;;62.17;31.30;;;;;;;0.48;80.50;95962.00;5074993;28;20410;-76
2021/01/04 05:05:59;;;;;;;60.63;30.75;;;;;;;0.49;80.29;95961.06;5068719;28;20397;-76
2021/01/04 05:09:03;;;;;;;62.17;30.63;;;;;;;0.47;80.48;95952.69;5068398;28;20056;-76
2021/01/04 05:11:35;;;;;;;64.63;32.50;;;;;;;0.46;80.27;95958.00;5065719;28;20492;-76
2021/01/04 05:14:08;;;;;;;61.80;32.40;;;;;;;0.47;80.27;95962.19;5072836;28;20044;-76
2021/01/04 05:16:55;;;;;;;64.90;31.65;;;;;;;0.47;80.46;95960.41;5064726;28;20519;-76
2021/01/04 05:19:39;;;;;;;60.45;31.98;;;;;;;0.46;80.49;95965.72;5062630;28;21622;-76
2021/01/04 05:22:20;;;;;;;64.43;33.95;;;;;;;0.46;80.47;95960.56;5072288;28;20044;-77
2021/01/04 05:25:02;;;;;;;57.33;29.35;;;;;;;0.47;80.33;95963.00;5068212;28;20073;-76
2021/01/04 05:27:53;;;;;;;62.25;31.75;;;;;;;0.47;80.48;95960.41;5072592;28;20041;-76
2021/01/04 05:30:29;;;;;;;62.22;30.33;;;;;;;0.49;80.43;95963.63;5068712;28;20542;-77
2021/01/04 05:33:07;;;;;;;61.33;30.58;;;;;;;0.51;80.33;95966.06;5066087;28;20051;-76
2021/01/04 05:35:35;;;;;;;56.28;29.30;;;;;;;0.51;80.52;95966.84;5072142;28;20063;-76
2021/01/04 05:38:23;;;;;;;58.88;30.77;;;;;;;0.49;80.38;95970.56;5031482;28;20041;-76
2021/01/04 05:40:58;;;;;;;57.72;29.23;;;;;;;0.48;80.39;95966.38;5049151;28;20072;-76
2021/01/04 05:43:43;;;;;;;56.50;29.98;;;;;;;0.49;80.46;95960.25;5048623;28;20481;-77
2021/01/04 05:46:25;;;;;;;62.38;31.88;;;;;;;0.47;80.33;95963.00;5044026;28;20504;-76
2021/01/04 05:49:08;;;;;;;60.97;30.60;;;;;;;0.45;80.32;95953.81;5051220;28;20493;-77
2021/01/04 05:51:39;;;;;;;66.80;33.22;;;;;;;0.43;80.30;95959.13;5042881;28;20493;-76
2021/01/04 05:54:06;;;;;;;68.28;32.50;;;;;;;0.42;80.42;95960.13;5048586;28;20057;-76
2021/01/04 05:56:32;;;;;;;70.90;34.63;;;;;;;0.42;80.57;95957.53;5050364;28;20052;-76
2021/01/04 05:59:14;;;;;;;63.00;32.08;;;;;;;0.37;80.50;95957.22;5027007;28;20037;-76
2021/01/04 06:01:44;;;;;;;66.07;33.60;;;;;;;0.33;80.46;95961.91;5026190;28;20048;-76
2021/01/04 06:04:22;;;;;;;67.10;32.90;;;;;;;0.32;80.70;95960.31;5045738;28;20036;-76
2021/01/04 06:06:56;;;;;;;70.57;33.75;;;;;;;0.28;80.64;95956.44;5051663;28;20080;-77
2021/01/04 06:09:23;;;;;;;71.65;33.38;;;;;;;0.27;80.54;95962.56;5046746;28;20488;-76
2021/01/04 06:11:57;;;;;;;67.03;33.13;;;;;;;0.26;80.96;95960.97;5043530;28;20044;-76
2021/01/04 06:14:30;;;;;;;72.30;35.17;;;;;;;0.24;80.88;95965.47;5042188;28;20045;-76
2021/01/04 06:17:07;;;;;;;70.35;33.05;;;;;;;0.24;80.91;95959.53;5050738;28;20041;-76
2021/01/04 06:19:41;;;;;;;71.18;33.95;;;;;;;0.24;81.16;95960.31;5035044;28;20041;-76
2021/01/04 06:22:10;;;;;;;75.72;35.88;;;;;;;0.24;81.04;95955.16;5047318;28;20045;-76
2021/01/04 06:24:38;;;;;;;70.90;33.97;;;;;;;0.21;81.00;95960.66;5050854;28;20496;-76
2021/01/04 06:27:32;;;;;;;70.57;35.67;;;;;;;0.19;81.38;95957.44;5020731;28;20045;-76
2021/01/04 06:30:22;;;;;;;76.63;36.67;;;;;;;0.18;81.43;95961.78;5049755;28;20499;-76
2021/01/04 06:32:50;;;;;;;74.70;35.92;;;;;;;0.16;81.07;95973.22;5035134;28;20042;-76
2021/01/04 06:35:16;;;;;;;76.55;35.35;;;;;;;0.15;81.14;95972.44;5047761;28;20059;-80
2021/01/04 06:37:43;;;;;;;70.47;35.25;;;;;;;0.17;81.22;95969.69;5066151;28;20048;-77
2021/01/04 06:40:39;;;;;;;69.97;33.67;;;;;;;0.19;81.57;95962.59;5061723;28;20048;-76
2021/01/04 06:43:12;;;;;;;71.07;34.67;;;;;;;0.20;81.44;95965.00;5066753;28;20063;-76
2021/01/04 06:45:57;;;;;;;67.50;32.63;;;;;;;0.23;81.13;95960.47;5063044;28;20392;-75
2021/01/04 06:48:52;;;;;;;67.63;34.75;;;;;;;0.24;81.50;95962.09;5073303;28;20033;-76
2021/01/04 06:51:43;;;;;;;72.13;35.58;;;;;;;0.24;81.28;95955.16;5063975;28;20040;-76
2021/01/04 06:54:21;;;;;;;69.25;33.88;;;;;;;0.22;80.92;95957.09;5064855;28;20059;-76
2021/01/04 06:57:17;;;;;;;69.05;34.78;;;;;;;0.25;81.14;95963.69;5069147;28;20366;-76
2021/01/04 07:00:04;;;;;;;75.00;35.25;;;;;;;0.26;81.45;95960.16;5062248;28;20041;-76
2021/01/04 07:03:06;;;;;;;76.00;35.47;;;;;;;0.26;81.27;95966.13;5067765;28;20480;-76
2021/01/04 07:06:06;;;;;;;70.72;33.95;;;;;;;0.27;81.62;95969.50;5019832;28;20041;-76
2021/01/04 07:08:47;;;;;;;75.15;35.03;;;;;;;0.25;81.59;95967.06;5068984;28;20048;-76
2021/01/04 07:11:36;;;;;;;75.10;36.28;;;;;;;0.26;81.35;95967.91;5069138;28;20044;-76
2021/01/04 07:14:40;;;;;;;74.95;35.03;;;;;;;0.25;81.78;95976.59;5050867;28;20037;-77
2021/01/04 07:17:54;;;;;;;70.40;33.35;;;;;;;0.28;81.71;95965.97;5064717;28;20041;-77
2021/01/04 07:20:40;;;;;;;72.35;34.03;;;;;;;0.25;81.25;95969.66;5020628;28;20048;-77
2021/01/04 07:23:43;;;;;;;80.63;36.63;;;;;;;0.21;81.50;95970.97;5064940;28;20495;-77
2021/01/04 07:26:23;;;;;;;73.68;35.38;;;;;;;0.17;81.26;95973.06;5067033;28;20059;-80
2021/01/04 07:29:04;;;;;;;73.72;34.85;;;;;;;0.15;81.43;95969.06;5057398;28;20052;-77
2021/01/04 07:31:36;;;;;;;74.90;35.35;;;;;;;0.14;81.52;95973.38;5056542;28;20041;-77
2021/01/04 07:34:34;;;;;;;75.35;36.33;;;;;;;0.13;81.75;95979.53;5072364;28;20040;-77
2021/01/04 07:37:15;;;;;;;74.75;36.00;;;;;;;0.10;81.75;95979.84;5053361;28;20060;-77
2021/01/04 07:39:48;;;;;;;79.47;36.85;;;;;;;0.10;81.85;95979.84;5023430;28;20046;-78
2021/01/04 07:42:26;;;;;;;74.00;35.35;;;;;;;0.12;81.85;95982.25;5045720;28;20052;-77
2021/01/04 07:45:25;;;;;;;79.88;36.85;;;;;;;0.12;82.00;95980.47;5049119;28;20048;-78
2021/01/04 07:48:18;;;;;;;74.00;35.97;;;;;;;0.13;81.98;95976.94;5038857;28;20056;-77
2021/01/04 07:51:20;;;;;;;75.88;35.70;;;;;;;0.12;82.21;95990.00;5025377;28;20029;-77
2021/01/04 07:54:23;;;;;;;74.03;35.40;;;;;;;0.10;82.13;95984.19;5042858;28;20052;-78
2021/01/04 07:57:07;;;;;;;71.57;34.33;;;;;;;0.09;81.74;95991.13;5043160;28;20038;-77
2021/01/04 07:59:50;;;;;;;73.10;34.75;;;;;;;0.09;82.14;95980.81;5052384;28;20453;-77
2021/01/04 08:02:54;;;;;;;75.60;33.92;;;;;;;0.14;82.19;95988.06;5047724;28;20041;-77
2021/01/04 08:05:59;;;;;;;69.20;34.00;;;;;;;0.16;82.31;95980.97;5046203;28;20481;-78
2021/01/04 08:08:33;;;;;;;;;;;;;;;0.17;82.38;95982.59;5049378;28;20045;-78
2021/01/04 08:11:36;;;;;;;71.80;33.97;;;;;;;0.16;82.02;95983.53;5053453;28;19934;-77
2021/01/04 08:14:30;;;;;;;70.40;34.55;;;;;;;0.18;82.21;95992.72;5042715;28;20037;-77
2021/01/04 08:17:18;;;;;;;67.55;33.47;;;;;;;0.22;82.14;95992.41;5036629;28;20049;-77
2021/01/04 08:19:48;;;;;;;73.30;34.80;;;;;;;0.24;81.97;95990.47;5040059;28;20044;-77
2021/01/04 08:22:46;;;;;;;79.63;37.08;;;;;;;0.28;81.96;95994.31;5034369;28;20475;-77
2021/01/04 08:25:28;;;;;;;74.60;35.13;;;;;;;0.27;82.00;95992.69;5033346;28;20053;-77
2021/01/04 08:28:07;;;;;;;80.32;37.10;;;;;;;0.25;81.80;95992.84;5037241;28;20385;-77
2021/01/04 08:30:57;;;;;;;65.28;32.63;;;;;;;0.27;82.33;95992.69;5022649;28;20068;-77
2021/01/04 08:33:33;;;;;;;74.05;34.63;;;;;;;0.32;81.94;95990.44;5022405;28;20040;-77
2021/01/04 08:36:00;;;;;;;76.45;36.35;;;;;;;0.31;81.75;95997.34;5051576;28;20045;-78
2021/01/04 08:38:27;;;;;;;71.93;33.55;;;;;;;0.31;81.84;95989.63;5037241;28;20040;-78
2021/01/04 08:41:19;;;;;;;77.78;35.80;;;;;;;0.33;82.04;95992.03;5031440;28;20047;-77
2021/01/04 08:43:51;;;;;;;75.55;37.15;;;;;;;0.32;81.84;95990.44;5025384;28;20037;-78
2021/01/04 08:46:23;;;;;;;74.68;35.13;;;;;;;0.29;81.89;95988.97;5026020;28;20046;-77
2021/01/04 08:48:52;;;;;;;77.82;36.60;;;;;;;0.29;81.72;95998.50;5048182;28;20033;-78
2021/01/04 08:51:35;;;;;;;74.90;35.78;;;;;;;0.29;81.89;95998.50;5043280;28;20045;-78
2021/01/04 08:54:20;;;;;;;71.97;35.03;;;;;;;0.31;82.08;95999.94;5043191;28;20040;-78
2021/01/04 08:57:03;;;;;;;71.40;35.25;;;;;;;0.31;81.69;96005.09;5038042;28;20055;-77
2021/01/04 08:59:33;;;;;;;76.28;35.63;;;;;;;0.34;81.86;96002.22;5050808;28;20048;-77
2021/01/04 09:02:31;;;;;;;70.82;35.00;;;;;;;0.42;82.10;95998.81;5048966;28;20033;-77
2021/01/04 09:05:05;;;;;;;69.65;34.78;;;;;;;0.47;81.94;95998.31;5036344;28;20045;-78
2021/01/04 09:07:53;;;;;;;74.80;35.53;;;;;;;0.55;81.77;96006.03;5107729;27;20979;-77
2021/01/04 09:10:24;;;;;;;66.97;31.80;;;;;;;0.59;81.67;96002.16;5081123;28;20590;-78
2021/01/04 09:12:53;;;;;;;71.68;36.22;;;;;;;0.63;81.62;95995.69;5068202;28;20044;-79
2021/01/04 09:15:22;;;;;;;73.78;35.25;;;;;;;0.60;81.57;95989.06;5088146;28;20404;-79
2021/01/04 09:17:50;;;;;;;72.13;34.47;;;;;;;0.60;81.50;95994.22;5083583;28;20040;-78
2021/01/04 09:20:25;;;;;;;69.93;34.13;;;;;;;0.60;81.64;95993.44;5088865;28;20047;-78
2021/01/04 09:23:23;;;;;;;70.55;33.10;;;;;;;0.61;81.57;95997.63;5089917;28;20043;-77
2021/01/04 09:26:01;;;;;;;74.50;33.55;;;;;;;0.77;84.17;95999.31;5085033;28;20044;-78
2021/01/04 09:28:38;;;;;;;70.55;34.25;;;;;;;0.79;81.71;95998.19;5055716;28;20028;-78
2021/01/04 09:31:07;;;;;;;70.22;32.45;;;;;;;0.77;81.57;95999.31;5065137;28;20063;-78
2021/01/04 09:33:43;;;;;;;68.32;33.22;;;;;;;0.71;81.41;95992.25;5059287;28;20056;-79
2021/01/04 09:36:10;;;;;;;71.40;34.42;;;;;;;0.68;81.40;95985.66;5078464;28;20047;-78
2021/01/04 09:38:36;;;;;;;66.90;33.95;;;;;;;0.65;81.55;96000.66;5068601;28;20052;-78
2021/01/04 09:41:07;;;;;;;75.57;36.28;;;;;;;0.61;81.41;95992.47;5081037;28;20055;-79
2021/01/04 09:43:36;;;;;;;77.28;35.75;;;;;;;0.58;81.41;95990.19;5079186;28;20055;-79
2021/01/04 09:46:25;;;;;;;71.55;35.05;;;;;;;0.56;81.70;95985.19;5071072;28;20036;-79
2021/01/04 09:49:00;;;;;;;71.95;34.47;;;;;;;0.55;81.58;95980.22;5081171;28;20036;-78
2021/01/04 09:51:33;;;;;;;72.28;35.75;;;;;;;0.56;81.75;95976.66;5081864;28;20048;-78
2021/01/04 09:54:03;;;;;;;71.03;35.17;;;;;;;0.54;81.65;95978.59;5071199;28;20048;-78
2021/01/04 09:56:34;;;;;;;71.47;36.50;;;;;;;0.54;81.66;95981.19;5086680;28;20051;-78
2021/01/04 09:59:05;;;;;;;71.63;34.80;;;;;;;0.52;81.88;95981.34;5072276;28;20052;-78
2021/01/04 10:01:41;;;;;;;69.95;35.28;;;;;;;0.56;81.86;95984.41;5061893;28;20044;-78
2021/01/04 10:04:08;;;;;;;72.40;34.72;;;;;;;0.57;81.88;95978.28;5077600;28;20036;-78
2021/01/04 10:06:39;;;;;;;68.10;34.13;;;;;;;0.60;82.11;95973.56;5077303;28;20040;-79
2021/01/04 10:09:12;;;;;;;73.60;34.45;;;;;;;0.60;81.62;95973.56;5065133;28;20055;-80
2021/01/04 10:11:38;;;;;;;70.03;34.28;;;;;;;0.62;81.75;95967.47;5066865;28;20064;-78
2021/01/04 10:14:13;;;;;;;71.47;34.85;;;;;;;0.64;81.67;95974.06;5064903;28;20048;-78
2021/01/04 10:16:43;;;;;;;66.88;33.05;;;;;;;0.65;81.67;95980.00;5063037;28;20045;-78
2021/01/04 10:19:22;;;;;;;74.20;35.03;;;;;;;0.66;81.68;95968.75;5045897;28;20052;-78
2021/01/04 10:22:06;;;;;;;70.07;34.22;;;;;;;0.65;81.67;95969.69;5038253;28;20045;-78
2021/01/04 10:24:48;;;;;;;71.57;34.28;;;;;;;0.64;81.60;95965.53;5045458;28;20045;-78
2021/01/04 10:27:17;;;;;;;69.65;32.83;;;;;;;0.64;81.59;95963.75;5046612;28;20048;-79
2021/01/04 10:29:52;;;;;;;68.03;34.03;;;;;;;0.64;81.53;95960.34;5051935;28;20036;-79
2021/01/04 10:32:32;;;;;;;69.95;34.13;;;;;;;0.71;83.40;95964.66;5047833;28;20045;-78
2021/01/04 10:34:58;;;;;;;60.78;29.48;;;;;;;1.18;94.58;95963.00;5048824;28;20045;-78
2021/01/04 10:37:30;;;;;;;59.63;28.88;;;;;;;2.23;100.00;95959.72;5051924;28;20045;-78
2021/01/04 10:39:59;;;;;;;65.65;31.67;;;;;;;3.14;99.62;95952.47;5053499;28;20045;-78
2021/01/04 10:42:27;;;;;;;56.92;30.83;;;;;;;3.29;83.72;95955.03;5053840;28;20041;-78
2021/01/04 10:45:07;;;;;;;53.88;29.02;;;;;;;3.00;80.11;95963.69;5054467;28;20412;-78
2021/01/04 10:47:42;;;;;;;58.28;28.45;;;;;;;2.61;79.77;95957.84;5049078;28;20488;-78
2021/01/04 10:50:15;;;;;;;56.90;28.58;;;;;;;2.28;78.94;95961.78;5043674;28;20045;-77
2021/01/04 10:52:52;;;;;;;53.27;28.67;;;;;;;1.91;78.54;95961.66;5044926;28;20033;-77
2021/01/04 10:55:21;;;;;;;55.00;28.85;;;;;;;1.70;79.63;95966.66;5041406;28;20029;-77
2021/01/04 10:57:52;;;;;;;56.88;28.80;;;;;;;1.48;79.85;95956.16;5054507;28;20041;-77
2021/01/04 11:00:27;;;;;;;54.33;28.58;;;;;;;1.33;79.56;95963.84;5022694;28;20048;-77
2021/01/04 11:02:55;;;;;;;48.67;26.00;;;;;;;1.12;79.19;95953.34;5049895;28;20029;-77
2021/01/04 11:05:42;;;;;;;49.90;25.48;;;;;;;0.95;79.07;95952.63;5051432;28;20048;-76
2021/01/04 11:08:38;;;;;;;50.17;25.23;;;;;;;0.78;79.06;95949.34;5048703;28;20473;-78
2021/01/04 11:11:27;;;;;;;55.75;28.13;;;;;;;0.77;79.99;95953.66;5021490;28;20414;-77
2021/01/04 11:14:11;;;;;;;54.20;26.15;;;;;;;0.75;79.44;95953.03;5021259;28;20048;-77
2021/01/04 11:17:18;;;;;;;55.35;28.33;;;;;;;0.73;79.20;95949.81;5054389;28;20048;-77
2021/01/04 11:19:45;;;;;;;52.35;26.52;;;;;;;0.68;79.91;95946.16;5047086;28;20044;-77
2021/01/04 11:22:25;;;;;;;51.92;27.83;;;;;;;0.64;79.68;95950.03;5052156;28;20041;-77
2021/01/04 11:24:52;;;;;;;55.30;27.02;;;;;;;0.62;80.20;95946.81;5048195;28;20041;-76
2021/01/04 11:27:20;;;;;;;52.25;26.38;;;;;;;0.56;79.74;95946.50;5041007;28;20037;-76
2021/01/04 11:29:47;;;;;;;49.10;25.27;;;;;;;0.52;80.33;95950.38;5052449;28;20377;-76
2021/01/04 11:32:15;;;;;;;53.35;27.23;;;;;;;0.49;80.01;95940.41;5052058;28;20048;-77
2021/01/04 11:34:46;;;;;;;53.22;27.42;;;;;;;0.47;79.97;95944.94;5047495;28;20049;-78
2021/01/04 11:37:14;;;;;;;50.35;27.02;;;;;;;0.48;80.21;95941.38;5048422;28;20048;-76
2021/01/04 11:39:40;;;;;;;51.25;26.77;;;;;;;0.51;80.45;95935.91;5036590;28;20041;-76
2021/01/04 11:42:07;;;;;;;48.92;26.75;;;;;;;0.48;80.03;95932.84;5031840;28;20049;-76
2021/01/04 11:44:34;;;;;;;49.28;25.95;;;;;;;0.50;79.82;95931.69;5049974;28;20481;-76
2021/01/04 11:47:00;;;;;;;48.15;25.80;;;;;;;0.49;79.58;95930.09;5053266;28;20048;-76
2021/01/04 11:49:28;;;;;;;47.75;25.17;;;;;;;0.56;80.04;95930.22;5051859;28;20496;-76
2021/01/04 11:51:55;;;;;;;47.83;24.35;;;;;;;0.63;80.14;95922.59;5051948;28;20048;-76
2021/01/04 11:54:21;;;;;;;40.08;22.02;;;;;;;0.62;79.01;95929.56;5054165;28;20040;-76
2021/01/04 11:56:48;;;;;;;40.80;21.00;;;;;;;0.60;79.31;95916.81;5051706;28;20049;-76
2021/01/04 11:59:16;;;;;;;42.13;22.55;;;;;;;0.62;79.32;95914.06;5043126;28;20052;-76
2021/01/04 12:01:42;;;;;;;43.85;23.00;;;;;;;0.64;78.95;95914.72;5045433;28;20036;-76
2021/01/04 12:04:09;;;;;;;42.53;22.80;;;;;;;0.60;78.42;95909.06;5051526;28;20045;-76
2021/01/04 12:06:36;;;;;;;43.83;22.08;;;;;;;0.60;79.23;95911.66;5052555;28;20048;-76
2021/01/04 12:09:06;;;;;;;43.85;24.23;;;;;;;0.67;79.28;95906.63;5051520;28;20053;-76
2021/01/04 12:11:39;;;;;;;44.67;23.70;;;;;;;0.67;78.66;95905.81;5053745;28;20048;-76
2021/01/04 12:14:07;;;;;;;43.92;23.65;;;;;;;0.69;78.79;95907.25;5050369;28;20499;-76
2021/01/04 12:16:35;;;;;;;48.45;23.63;;;;;;;0.67;79.04;95898.88;5050524;28;20063;-76